sensor_id;sensor_type;location;lat;lon;timestamp;temperature;humidity
26623;DHT22;14254;50.968;5.366;2023-06-14T00:00:58;19.40;91.30
26623;DHT22;14254;50.968;5.366;2023-06-14T00:03:24;19.50;91.30
26623;DHT22;14254;50.968;5.366;2023-06-14T00:05:50;19.30;91.70
26623;DHT22;14254;50.968;5.366;2023-06-14T00:08:15;19.40;91.50
26623;DHT22;14254;50.968;5.366;2023-06-14T00:10:42;19.40;91.50
26623;DHT22;14254;50.968;5.366;2023-06-14T00:13:11;19.40;91.60
26623;DHT22;14254;50.968;5.366;2023-06-14T00:15:37;19.50;91.40
26623;DHT22;14254;50.968;5.366;2023-06-14T00:18:03;19.30;91.80
26623;DHT22;14254;50.968;5.366;2023-06-14T00:20:31;19.30;92.00
26623;DHT22;14254;50.968;5.366;2023-06-14T00:23:01;19.30;92.00
26623;DHT22;14254;50.968;5.366;2023-06-14T00:25:28;19.30;92.20
26623;DHT22;14254;50.968;5.366;2023-06-14T00:27:55;19.30;92.10
26623;DHT22;14254;50.968;5.366;2023-06-14T00:30:21;19.20;92.30
26623;DHT22;14254;50.968;5.366;2023-06-14T00:32:47;19.10;93.40
26623;DHT22;14254;50.968;5.366;2023-06-14T00:35:13;19.10;93.30
26623;DHT22;14254;50.968;5.366;2023-06-14T00:37:39;19.10;93.40
26623;DHT22;14254;50.968;5.366;2023-06-14T00:40:08;19.00;93.80
26623;DHT22;14254;50.968;5.366;2023-06-14T00:42:34;19.00;93.70
26623;DHT22;14254;50.968;5.366;2023-06-14T00:45:00;18.90;94.00
26623;DHT22;14254;50.968;5.366;2023-06-14T00:47:26;18.90;94.20
26623;DHT22;14254;50.968;5.366;2023-06-14T00:49:53;18.80;94.70
26623;DHT22;14254;50.968;5.366;2023-06-14T00:52:20;18.70;95.50
26623;DHT22;14254;50.968;5.366;2023-06-14T00:54:46;18.60;95.80
26623;DHT22;14254;50.968;5.366;2023-06-14T00:57:12;18.50;96.50
26623;DHT22;14254;50.968;5.366;2023-06-14T00:59:43;18.50;96.90
26623;DHT22;14254;50.968;5.366;2023-06-14T01:02:09;18.40;97.10
26623;DHT22;14254;50.968;5.366;2023-06-14T01:04:35;18.40;97.30
26623;DHT22;14254;50.968;5.366;2023-06-14T01:07:02;18.40;97.50
26623;DHT22;14254;50.968;5.366;2023-06-14T01:10:12;18.40;97.50
26623;DHT22;14254;50.968;5.366;2023-06-14T01:15:20;18.20;98.80
26623;DHT22;14254;50.968;5.366;2023-06-14T01:17:49;18.20;99.00
26623;DHT22;14254;50.968;5.366;2023-06-14T01:20:19;18.10;99.50
26623;DHT22;14254;50.968;5.366;2023-06-14T01:22:55;18.00;99.90
26623;DHT22;14254;50.968;5.366;2023-06-14T01:25:22;18.10;99.90
26623;DHT22;14254;50.968;5.366;2023-06-14T01:28:00;18.10;99.90
26623;DHT22;14254;50.968;5.366;2023-06-14T01:30:29;18.00;99.90
26623;DHT22;14254;50.968;5.366;2023-06-14T01:32:56;18.00;99.90
26623;DHT22;14254;50.968;5.366;2023-06-14T01:35:23;18.00;99.90
26623;DHT22;14254;50.968;5.366;2023-06-14T01:37:49;18.00;99.90
26623;DHT22;14254;50.968;5.366;2023-06-14T01:40:18;18.00;99.90
26623;DHT22;14254;50.968;5.366;2023-06-14T01:42:47;17.90;99.90
26623;DHT22;14254;50.968;5.366;2023-06-14T01:45:14;17.90;99.90
26623;DHT22;14254;50.968;5.366;2023-06-14T01:47:41;17.90;99.90
26623;DHT22;14254;50.968;5.366;2023-06-14T01:50:07;17.80;99.90
26623;DHT22;14254;50.968;5.366;2023-06-14T01:52:33;17.70;99.90
26623;DHT22;14254;50.968;5.366;2023-06-14T01:54:59;17.80;99.90
26623;DHT22;14254;50.968;5.366;2023-06-14T01:57:28;17.70;99.90
26623;DHT22;14254;50.968;5.366;2023-06-14T01:59:54;17.70;99.90
26623;DHT22;14254;50.968;5.366;2023-06-14T02:02:19;17.60;99.90
26623;DHT22;14254;50.968;5.366;2023-06-14T02:04:45;17.50;99.90
26623;DHT22;14254;50.968;5.366;2023-06-14T02:07:13;17.40;99.90
26623;DHT22;14254;50.968;5.366;2023-06-14T02:09:40;17.30;99.90
26623;DHT22;14254;50.968;5.366;2023-06-14T02:12:06;17.30;99.90
26623;DHT22;14254;50.968;5.366;2023-06-14T02:14:32;17.30;99.90
26623;DHT22;14254;50.968;5.366;2023-06-14T02:16:59;17.30;99.90
26623;DHT22;14254;50.968;5.366;2023-06-14T02:19:26;17.10;99.90
26623;DHT22;14254;50.968;5.366;2023-06-14T02:21:52;17.10;99.90
26623;DHT22;14254;50.968;5.366;2023-06-14T02:24:18;17.20;99.90
26623;DHT22;14254;50.968;5.366;2023-06-14T02:26:43;17.00;99.90
26623;DHT22;14254;50.968;5.366;2023-06-14T02:29:09;17.00;99.90
26623;DHT22;14254;50.968;5.366;2023-06-14T02:31:38;17.00;99.90
26623;DHT22;14254;50.968;5.366;2023-06-14T02:34:03;17.00;99.90
26623;DHT22;14254;50.968;5.366;2023-06-14T02:36:29;17.00;99.90
26623;DHT22;14254;50.968;5.366;2023-06-14T02:38:56;16.90;99.90
26623;DHT22;14254;50.968;5.366;2023-06-14T02:41:23;16.90;99.90
26623;DHT22;14254;50.968;5.366;2023-06-14T02:43:49;16.90;99.90
26623;DHT22;14254;50.968;5.366;2023-06-14T02:46:15;16.80;99.90
26623;DHT22;14254;50.968;5.366;2023-06-14T02:48:41;16.80;99.90
26623;DHT22;14254;50.968;5.366;2023-06-14T02:51:06;16.80;99.90
26623;DHT22;14254;50.968;5.366;2023-06-14T02:53:34;16.70;99.90
26623;DHT22;14254;50.968;5.366;2023-06-14T02:56:00;16.70;99.90
26623;DHT22;14254;50.968;5.366;2023-06-14T02:58:26;16.70;99.90
26623;DHT22;14254;50.968;5.366;2023-06-14T03:00:52;16.60;99.90
26623;DHT22;14254;50.968;5.366;2023-06-14T03:03:20;16.60;99.90
26623;DHT22;14254;50.968;5.366;2023-06-14T03:05:48;16.60;99.90
26623;DHT22;14254;50.968;5.366;2023-06-14T03:08:15;16.50;99.90
26623;DHT22;14254;50.968;5.366;2023-06-14T03:10:48;16.50;99.90
26623;DHT22;14254;50.968;5.366;2023-06-14T03:13:14;16.50;99.90
26623;DHT22;14254;50.968;5.366;2023-06-14T03:15:41;16.50;99.90
26623;DHT22;14254;50.968;5.366;2023-06-14T03:18:08;16.60;99.90
26623;DHT22;14254;50.968;5.366;2023-06-14T03:20:35;16.50;99.90
26623;DHT22;14254;50.968;5.366;2023-06-14T03:23:02;16.50;99.90
26623;DHT22;14254;50.968;5.366;2023-06-14T03:25:28;16.50;99.90
26623;DHT22;14254;50.968;5.366;2023-06-14T03:27:57;16.50;99.90
26623;DHT22;14254;50.968;5.366;2023-06-14T03:30:23;16.50;99.90
26623;DHT22;14254;50.968;5.366;2023-06-14T03:32:49;16.50;99.90
26623;DHT22;14254;50.968;5.366;2023-06-14T03:35:17;16.40;99.90
26623;DHT22;14254;50.968;5.366;2023-06-14T03:37:44;16.40;99.90
26623;DHT22;14254;50.968;5.366;2023-06-14T03:40:10;16.40;99.90
26623;DHT22;14254;50.968;5.366;2023-06-14T03:42:36;16.40;99.90
26623;DHT22;14254;50.968;5.366;2023-06-14T03:45:02;16.40;99.90
26623;DHT22;14254;50.968;5.366;2023-06-14T03:47:28;16.40;99.90
26623;DHT22;14254;50.968;5.366;2023-06-14T03:49:53;16.40;99.90
26623;DHT22;14254;50.968;5.366;2023-06-14T03:52:19;16.50;99.90
26623;DHT22;14254;50.968;5.366;2023-06-14T03:54:46;16.50;99.90
26623;DHT22;14254;50.968;5.366;2023-06-14T03:57:12;16.50;99.90
26623;DHT22;14254;50.968;5.366;2023-06-14T03:59:37;16.40;99.90
26623;DHT22;14254;50.968;5.366;2023-06-14T04:02:03;16.40;99.90
26623;DHT22;14254;50.968;5.366;2023-06-14T04:04:29;16.40;99.90
26623;DHT22;14254;50.968;5.366;2023-06-14T04:06:56;16.40;99.90
26623;DHT22;14254;50.968;5.366;2023-06-14T04:09:26;16.50;99.90
26623;DHT22;14254;50.968;5.366;2023-06-14T04:11:55;16.50;99.90
26623;DHT22;14254;50.968;5.366;2023-06-14T04:14:21;16.60;99.90
26623;DHT22;14254;50.968;5.366;2023-06-14T04:16:48;16.70;99.90
26623;DHT22;14254;50.968;5.366;2023-06-14T04:19:14;16.70;99.90
26623;DHT22;14254;50.968;5.366;2023-06-14T04:21:40;16.70;99.90
26623;DHT22;14254;50.968;5.366;2023-06-14T04:24:06;16.70;99.90
26623;DHT22;14254;50.968;5.366;2023-06-14T04:26:32;16.80;99.90
26623;DHT22;14254;50.968;5.366;2023-06-14T04:28:59;16.80;99.90
26623;DHT22;14254;50.968;5.366;2023-06-14T04:31:29;16.90;99.90
26623;DHT22;14254;50.968;5.366;2023-06-14T04:33:56;16.90;99.90
26623;DHT22;14254;50.968;5.366;2023-06-14T04:36:21;17.00;99.90
26623;DHT22;14254;50.968;5.366;2023-06-14T04:38:47;17.00;99.90
26623;DHT22;14254;50.968;5.366;2023-06-14T04:41:14;17.10;99.90
26623;DHT22;14254;50.968;5.366;2023-06-14T04:43:41;17.00;99.90
26623;DHT22;14254;50.968;5.366;2023-06-14T04:46:08;17.10;99.90
26623;DHT22;14254;50.968;5.366;2023-06-14T04:48:35;17.20;99.90
26623;DHT22;14254;50.968;5.366;2023-06-14T04:51:01;17.30;99.90
26623;DHT22;14254;50.968;5.366;2023-06-14T04:53:29;17.40;99.90
26623;DHT22;14254;50.968;5.366;2023-06-14T04:55:55;17.50;99.90
26623;DHT22;14254;50.968;5.366;2023-06-14T04:58:20;17.60;99.90
26623;DHT22;14254;50.968;5.366;2023-06-14T05:00:46;17.60;99.90
26623;DHT22;14254;50.968;5.366;2023-06-14T05:03:12;17.70;99.90
26623;DHT22;14254;50.968;5.366;2023-06-14T05:05:39;17.70;99.90
26623;DHT22;14254;50.968;5.366;2023-06-14T05:08:06;17.80;99.90
26623;DHT22;14254;50.968;5.366;2023-06-14T05:10:31;17.80;99.90
26623;DHT22;14254;50.968;5.366;2023-06-14T05:13:00;17.90;99.90
26623;DHT22;14254;50.968;5.366;2023-06-14T05:15:26;18.00;99.90
26623;DHT22;14254;50.968;5.366;2023-06-14T05:17:52;18.00;99.90
26623;DHT22;14254;50.968;5.366;2023-06-14T05:20:21;18.10;99.90
26623;DHT22;14254;50.968;5.366;2023-06-14T05:22:48;18.20;99.90
26623;DHT22;14254;50.968;5.366;2023-06-14T05:25:17;18.30;99.90
26623;DHT22;14254;50.968;5.366;2023-06-14T05:27:43;18.20;99.90
26623;DHT22;14254;50.968;5.366;2023-06-14T05:30:09;18.30;99.90
26623;DHT22;14254;50.968;5.366;2023-06-14T05:32:35;18.40;99.90
26623;DHT22;14254;50.968;5.366;2023-06-14T05:35:00;18.50;99.90
26623;DHT22;14254;50.968;5.366;2023-06-14T05:37:26;18.70;99.90
26623;DHT22;14254;50.968;5.366;2023-06-14T05:39:51;18.80;99.90
26623;DHT22;14254;50.968;5.366;2023-06-14T05:42:17;18.80;99.90
26623;DHT22;14254;50.968;5.366;2023-06-14T05:44:43;18.90;99.90
26623;DHT22;14254;50.968;5.366;2023-06-14T05:47:08;18.90;99.90
26623;DHT22;14254;50.968;5.366;2023-06-14T05:49:34;19.00;99.90
26623;DHT22;14254;50.968;5.366;2023-06-14T05:52:00;19.00;99.90
26623;DHT22;14254;50.968;5.366;2023-06-14T05:54:26;19.20;99.90
26623;DHT22;14254;50.968;5.366;2023-06-14T05:56:51;19.30;99.90
26623;DHT22;14254;50.968;5.366;2023-06-14T05:59:17;19.40;99.90
26623;DHT22;14254;50.968;5.366;2023-06-14T06:01:43;19.40;99.90
26623;DHT22;14254;50.968;5.366;2023-06-14T06:04:09;19.40;99.90
26623;DHT22;14254;50.968;5.366;2023-06-14T06:06:34;19.40;99.90
26623;DHT22;14254;50.968;5.366;2023-06-14T06:09:01;19.50;99.90
26623;DHT22;14254;50.968;5.366;2023-06-14T06:11:27;19.60;99.90
26623;DHT22;14254;50.968;5.366;2023-06-14T06:13:53;19.70;99.90
26623;DHT22;14254;50.968;5.366;2023-06-14T06:16:18;20.00;99.90
26623;DHT22;14254;50.968;5.366;2023-06-14T06:18:44;19.80;99.90
26623;DHT22;14254;50.968;5.366;2023-06-14T06:21:10;19.90;99.90
26623;DHT22;14254;50.968;5.366;2023-06-14T06:23:35;20.00;99.90
26623;DHT22;14254;50.968;5.366;2023-06-14T06:26:02;20.10;99.90
26623;DHT22;14254;50.968;5.366;2023-06-14T06:28:28;20.30;99.90
26623;DHT22;14254;50.968;5.366;2023-06-14T06:30:54;20.60;99.90
26623;DHT22;14254;50.968;5.366;2023-06-14T06:33:19;20.70;99.90
26623;DHT22;14254;50.968;5.366;2023-06-14T06:35:45;20.80;99.90
26623;DHT22;14254;50.968;5.366;2023-06-14T06:38:11;21.00;99.90
26623;DHT22;14254;50.968;5.366;2023-06-14T06:40:37;21.10;99.90
26623;DHT22;14254;50.968;5.366;2023-06-14T06:43:02;21.20;99.90
26623;DHT22;14254;50.968;5.366;2023-06-14T06:45:28;21.20;99.90
26623;DHT22;14254;50.968;5.366;2023-06-14T06:47:54;21.20;99.90
26623;DHT22;14254;50.968;5.366;2023-06-14T06:50:21;21.30;99.90
26623;DHT22;14254;50.968;5.366;2023-06-14T06:52:48;21.30;99.90
26623;DHT22;14254;50.968;5.366;2023-06-14T06:55:14;21.30;99.90
26623;DHT22;14254;50.968;5.366;2023-06-14T06:57:40;21.40;99.90
26623;DHT22;14254;50.968;5.366;2023-06-14T07:00:06;21.40;99.90
26623;DHT22;14254;50.968;5.366;2023-06-14T07:02:36;21.40;99.80
26623;DHT22;14254;50.968;5.366;2023-06-14T07:05:02;21.50;99.90
26623;DHT22;14254;50.968;5.366;2023-06-14T07:07:27;21.60;99.90
26623;DHT22;14254;50.968;5.366;2023-06-14T07:09:53;21.70;99.20
26623;DHT22;14254;50.968;5.366;2023-06-14T07:12:18;21.80;99.10
26623;DHT22;14254;50.968;5.366;2023-06-14T07:14:44;21.90;99.40
26623;DHT22;14254;50.968;5.366;2023-06-14T07:17:10;21.90;99.40
26623;DHT22;14254;50.968;5.366;2023-06-14T07:19:36;21.90;99.40
26623;DHT22;14254;50.968;5.366;2023-06-14T07:22:01;22.10;98.80
26623;DHT22;14254;50.968;5.366;2023-06-14T07:24:27;22.00;98.60
26623;DHT22;14254;50.968;5.366;2023-06-14T07:26:54;22.10;98.30
26623;DHT22;14254;50.968;5.366;2023-06-14T07:29:20;22.10;98.10
26623;DHT22;14254;50.968;5.366;2023-06-14T07:31:46;22.30;98.10
26623;DHT22;14254;50.968;5.366;2023-06-14T07:34:12;22.30;97.90
26623;DHT22;14254;50.968;5.366;2023-06-14T07:36:38;22.30;96.60
26623;DHT22;14254;50.968;5.366;2023-06-14T07:39:04;22.30;96.60
26623;DHT22;14254;50.968;5.366;2023-06-14T07:41:31;22.30;97.10
26623;DHT22;14254;50.968;5.366;2023-06-14T07:43:56;22.40;97.40
26623;DHT22;14254;50.968;5.366;2023-06-14T07:46:22;22.50;96.80
26623;DHT22;14254;50.968;5.366;2023-06-14T07:48:48;22.50;95.40
26623;DHT22;14254;50.968;5.366;2023-06-14T07:51:13;22.40;95.10
26623;DHT22;14254;50.968;5.366;2023-06-14T07:53:39;22.30;95.90
26623;DHT22;14254;50.968;5.366;2023-06-14T07:56:06;22.50;96.00
26623;DHT22;14254;50.968;5.366;2023-06-14T07:58:32;22.60;95.60
26623;DHT22;14254;50.968;5.366;2023-06-14T08:00:57;22.70;95.80
26623;DHT22;14254;50.968;5.366;2023-06-14T08:03:23;22.70;95.60
26623;DHT22;14254;50.968;5.366;2023-06-14T08:05:49;22.80;95.50
26623;DHT22;14254;50.968;5.366;2023-06-14T08:08:15;22.80;95.90
26623;DHT22;14254;50.968;5.366;2023-06-14T08:10:41;22.80;95.80
26623;DHT22;14254;50.968;5.366;2023-06-14T08:13:07;23.00;96.30
26623;DHT22;14254;50.968;5.366;2023-06-14T08:15:34;23.20;95.40
26623;DHT22;14254;50.968;5.366;2023-06-14T08:18:00;23.10;95.20
26623;DHT22;14254;50.968;5.366;2023-06-14T08:20:26;23.10;95.20
26623;DHT22;14254;50.968;5.366;2023-06-14T08:22:52;23.10;95.40
26623;DHT22;14254;50.968;5.366;2023-06-14T08:25:22;23.20;94.40
26623;DHT22;14254;50.968;5.366;2023-06-14T08:27:47;23.30;94.00
26623;DHT22;14254;50.968;5.366;2023-06-14T08:30:13;23.30;94.60
26623;DHT22;14254;50.968;5.366;2023-06-14T08:32:39;23.20;93.80
26623;DHT22;14254;50.968;5.366;2023-06-14T08:35:05;23.20;94.10
26623;DHT22;14254;50.968;5.366;2023-06-14T08:37:32;23.40;93.50
26623;DHT22;14254;50.968;5.366;2023-06-14T08:40:02;23.40;93.70
26623;DHT22;14254;50.968;5.366;2023-06-14T08:42:31;23.50;94.10
26623;DHT22;14254;50.968;5.366;2023-06-14T08:44:57;23.50;93.60
26623;DHT22;14254;50.968;5.366;2023-06-14T08:47:24;23.50;94.30
26623;DHT22;14254;50.968;5.366;2023-06-14T08:49:53;23.50;93.40
26623;DHT22;14254;50.968;5.366;2023-06-14T08:52:23;23.70;93.10
26623;DHT22;14254;50.968;5.366;2023-06-14T08:54:49;23.60;91.10
26623;DHT22;14254;50.968;5.366;2023-06-14T08:57:16;23.60;90.90
26623;DHT22;14254;50.968;5.366;2023-06-14T08:59:47;23.40;91.50
26623;DHT22;14254;50.968;5.366;2023-06-14T09:02:15;23.50;91.70
26623;DHT22;14254;50.968;5.366;2023-06-14T09:04:43;23.60;91.70
26623;DHT22;14254;50.968;5.366;2023-06-14T09:07:10;23.70;91.10
26623;DHT22;14254;50.968;5.366;2023-06-14T09:09:40;23.70;91.00
26623;DHT22;14254;50.968;5.366;2023-06-14T09:12:11;23.90;90.80
26623;DHT22;14254;50.968;5.366;2023-06-14T09:14:38;23.90;91.40
26623;DHT22;14254;50.968;5.366;2023-06-14T09:17:05;24.00;91.30
26623;DHT22;14254;50.968;5.366;2023-06-14T09:19:31;23.90;89.50
26623;DHT22;14254;50.968;5.366;2023-06-14T09:21:57;24.00;90.10
26623;DHT22;14254;50.968;5.366;2023-06-14T09:24:24;24.10;90.50
26623;DHT22;14254;50.968;5.366;2023-06-14T09:26:51;24.10;90.80
26623;DHT22;14254;50.968;5.366;2023-06-14T09:29:18;24.20;90.00
26623;DHT22;14254;50.968;5.366;2023-06-14T09:31:46;24.30;90.20
26623;DHT22;14254;50.968;5.366;2023-06-14T09:34:12;24.40;89.70
26623;DHT22;14254;50.968;5.366;2023-06-14T09:36:40;24.60;91.20
26623;DHT22;14254;50.968;5.366;2023-06-14T09:39:08;24.50;86.80
26623;DHT22;14254;50.968;5.366;2023-06-14T09:41:38;24.40;88.10
26623;DHT22;14254;50.968;5.366;2023-06-14T09:44:07;24.40;85.00
26623;DHT22;14254;50.968;5.366;2023-06-14T09:46:34;24.30;83.20
26623;DHT22;14254;50.968;5.366;2023-06-14T09:49:01;24.30;84.80
26623;DHT22;14254;50.968;5.366;2023-06-14T09:51:28;24.50;87.80
26623;DHT22;14254;50.968;5.366;2023-06-14T09:54:01;24.70;85.70
26623;DHT22;14254;50.968;5.366;2023-06-14T09:56:31;24.70;84.00
26623;DHT22;14254;50.968;5.366;2023-06-14T09:58:59;24.80;85.90
26623;DHT22;14254;50.968;5.366;2023-06-14T10:01:26;24.90;86.30
26623;DHT22;14254;50.968;5.366;2023-06-14T10:04:13;24.90;85.50
26623;DHT22;14254;50.968;5.366;2023-06-14T10:06:41;24.70;84.60
26623;DHT22;14254;50.968;5.366;2023-06-14T10:09:11;24.70;84.40
26623;DHT22;14254;50.968;5.366;2023-06-14T10:11:37;24.60;84.50
26623;DHT22;14254;50.968;5.366;2023-06-14T10:14:10;24.60;84.80
26623;DHT22;14254;50.968;5.366;2023-06-14T10:19:27;24.70;84.30
26623;DHT22;14254;50.968;5.366;2023-06-14T10:22:06;24.90;85.50
26623;DHT22;14254;50.968;5.366;2023-06-14T10:24:42;24.90;84.20
26623;DHT22;14254;50.968;5.366;2023-06-14T10:27:08;24.90;83.80
26623;DHT22;14254;50.968;5.366;2023-06-14T10:32:24;24.90;83.00
26623;DHT22;14254;50.968;5.366;2023-06-14T10:35:01;25.00;84.10
26623;DHT22;14254;50.968;5.366;2023-06-14T10:37:27;25.30;84.00
26623;DHT22;14254;50.968;5.366;2023-06-14T10:39:53;25.50;82.00
26623;DHT22;14254;50.968;5.366;2023-06-14T10:42:19;25.60;82.70
26623;DHT22;14254;50.968;5.366;2023-06-14T10:47:29;25.70;80.90
26623;DHT22;14254;50.968;5.366;2023-06-14T10:50:09;25.80;78.80
26623;DHT22;14254;50.968;5.366;2023-06-14T10:52:41;25.60;76.30
26623;DHT22;14254;50.968;5.366;2023-06-14T10:55:17;25.40;76.40
26623;DHT22;14254;50.968;5.366;2023-06-14T10:57:45;25.30;79.10
26623;DHT22;14254;50.968;5.366;2023-06-14T11:00:13;25.30;76.40
26623;DHT22;14254;50.968;5.366;2023-06-14T11:05:29;25.10;75.40
26623;DHT22;14254;50.968;5.366;2023-06-14T11:10:51;25.30;76.50
26623;DHT22;14254;50.968;5.366;2023-06-14T11:13:19;25.20;74.40
26623;DHT22;14254;50.968;5.366;2023-06-14T11:15:46;25.20;75.00
26623;DHT22;14254;50.968;5.366;2023-06-14T11:18:13;25.50;78.40
26623;DHT22;14254;50.968;5.366;2023-06-14T11:20:40;25.70;74.70
26623;DHT22;14254;50.968;5.366;2023-06-14T11:23:06;25.80;75.00
26623;DHT22;14254;50.968;5.366;2023-06-14T11:25:32;25.60;68.90
26623;DHT22;14254;50.968;5.366;2023-06-14T11:27:57;25.40;69.00
26623;DHT22;14254;50.968;5.366;2023-06-14T11:30:25;25.40;71.70
26623;DHT22;14254;50.968;5.366;2023-06-14T11:32:52;25.70;70.40
26623;DHT22;14254;50.968;5.366;2023-06-14T11:35:19;26.10;71.20
26623;DHT22;14254;50.968;5.366;2023-06-14T11:37:47;27.30;73.80
26623;DHT22;14254;50.968;5.366;2023-06-14T11:40:14;28.80;66.20
26623;DHT22;14254;50.968;5.366;2023-06-14T11:42:41;30.00;61.90
26623;DHT22;14254;50.968;5.366;2023-06-14T11:45:11;31.30;59.50
26623;DHT22;14254;50.968;5.366;2023-06-14T11:47:38;32.30;57.50
26623;DHT22;14254;50.968;5.366;2023-06-14T11:50:06;33.30;54.80
26623;DHT22;14254;50.968;5.366;2023-06-14T11:52:34;32.10;54.90
26623;DHT22;14254;50.968;5.366;2023-06-14T13:12:21;32.40;52.80
26623;DHT22;14254;50.968;5.366;2023-06-14T13:14:47;32.10;53.50
26623;DHT22;14254;50.968;5.366;2023-06-14T13:17:12;32.20;54.60
26623;DHT22;14254;50.968;5.366;2023-06-14T13:19:38;33.20;52.80
26623;DHT22;14254;50.968;5.366;2023-06-14T13:22:04;36.00;50.60
26623;DHT22;14254;50.968;5.366;2023-06-14T13:24:30;34.20;50.40
26623;DHT22;14254;50.968;5.366;2023-06-14T13:26:57;34.10;52.20
26623;DHT22;14254;50.968;5.366;2023-06-14T13:29:24;34.20;52.10
26623;DHT22;14254;50.968;5.366;2023-06-14T13:31:50;33.60;52.00
26623;DHT22;14254;50.968;5.366;2023-06-14T13:34:15;33.20;51.10
26623;DHT22;14254;50.968;5.366;2023-06-14T13:36:41;33.50;51.70
26623;DHT22;14254;50.968;5.366;2023-06-14T13:39:07;33.70;50.60
26623;DHT22;14254;50.968;5.366;2023-06-14T13:41:32;34.90;49.80
26623;DHT22;14254;50.968;5.366;2023-06-14T13:44:00;35.40;48.50
26623;DHT22;14254;50.968;5.366;2023-06-14T13:46:26;34.60;49.80
26623;DHT22;14254;50.968;5.366;2023-06-14T13:48:52;35.50;49.20
26623;DHT22;14254;50.968;5.366;2023-06-14T13:51:18;35.40;48.80
26623;DHT22;14254;50.968;5.366;2023-06-14T13:53:50;34.90;48.40
26623;DHT22;14254;50.968;5.366;2023-06-14T13:56:16;36.30;48.10
26623;DHT22;14254;50.968;5.366;2023-06-14T13:58:42;37.10;47.50
26623;DHT22;14254;50.968;5.366;2023-06-14T14:01:08;35.20;49.30
26623;DHT22;14254;50.968;5.366;2023-06-14T14:03:35;35.20;47.00
26623;DHT22;14254;50.968;5.366;2023-06-14T14:06:01;35.20;48.30
26623;DHT22;14254;50.968;5.366;2023-06-14T14:08:27;34.10;47.40
26623;DHT22;14254;50.968;5.366;2023-06-14T14:10:53;33.00;49.10
26623;DHT22;14254;50.968;5.366;2023-06-14T14:13:19;32.60;52.60
26623;DHT22;14254;50.968;5.366;2023-06-14T14:15:46;33.90;50.40
26623;DHT22;14254;50.968;5.366;2023-06-14T14:18:12;34.20;50.20
26623;DHT22;14254;50.968;5.366;2023-06-14T14:20:51;34.80;48.40
26623;DHT22;14254;50.968;5.366;2023-06-14T14:23:17;33.40;50.40
26623;DHT22;14254;50.968;5.366;2023-06-14T14:25:43;34.50;48.60
26623;DHT22;14254;50.968;5.366;2023-06-14T14:28:08;36.10;48.20
26623;DHT22;14254;50.968;5.366;2023-06-14T14:30:34;36.80;46.30
26623;DHT22;14254;50.968;5.366;2023-06-14T14:33:00;35.50;47.40
26623;DHT22;14254;50.968;5.366;2023-06-14T14:35:25;36.00;46.10
26623;DHT22;14254;50.968;5.366;2023-06-14T14:37:55;36.20;46.40
26623;DHT22;14254;50.968;5.366;2023-06-14T14:40:21;37.30;47.40
26623;DHT22;14254;50.968;5.366;2023-06-14T14:42:47;37.30;47.90
26623;DHT22;14254;50.968;5.366;2023-06-14T14:45:13;36.30;46.50
26623;DHT22;14254;50.968;5.366;2023-06-14T14:47:38;37.20;46.80
26623;DHT22;14254;50.968;5.366;2023-06-14T14:50:05;36.60;46.00
26623;DHT22;14254;50.968;5.366;2023-06-14T14:52:34;36.10;46.10
26623;DHT22;14254;50.968;5.366;2023-06-14T14:55:00;35.30;46.90
26623;DHT22;14254;50.968;5.366;2023-06-14T14:57:26;34.80;46.50
26623;DHT22;14254;50.968;5.366;2023-06-14T14:59:52;35.00;47.30
26623;DHT22;14254;50.968;5.366;2023-06-14T15:02:18;36.10;46.30
26623;DHT22;14254;50.968;5.366;2023-06-14T15:04:44;37.10;45.40
26623;DHT22;14254;50.968;5.366;2023-06-14T15:07:10;37.80;45.80
26623;DHT22;14254;50.968;5.366;2023-06-14T15:09:36;37.20;45.00
26623;DHT22;14254;50.968;5.366;2023-06-14T15:12:01;39.00;43.80
26623;DHT22;14254;50.968;5.366;2023-06-14T15:14:28;37.60;44.60
26623;DHT22;14254;50.968;5.366;2023-06-14T15:16:53;36.80;45.20
26623;DHT22;14254;50.968;5.366;2023-06-14T15:19:19;37.70;45.50
26623;DHT22;14254;50.968;5.366;2023-06-14T15:21:45;37.40;45.00
26623;DHT22;14254;50.968;5.366;2023-06-14T15:24:11;36.40;45.40
26623;DHT22;14254;50.968;5.366;2023-06-14T15:26:36;37.30;44.30
26623;DHT22;14254;50.968;5.366;2023-06-14T15:29:02;38.30;43.20
26623;DHT22;14254;50.968;5.366;2023-06-14T15:31:27;37.00;43.50
26623;DHT22;14254;50.968;5.366;2023-06-14T15:33:54;35.80;45.00
26623;DHT22;14254;50.968;5.366;2023-06-14T15:36:20;35.30;45.70
26623;DHT22;14254;50.968;5.366;2023-06-14T15:38:45;35.80;45.70
26623;DHT22;14254;50.968;5.366;2023-06-14T15:41:11;35.50;44.80
26623;DHT22;14254;50.968;5.366;2023-06-14T15:43:37;35.00;46.40
26623;DHT22;14254;50.968;5.366;2023-06-14T15:46:02;34.10;48.40
26623;DHT22;14254;50.968;5.366;2023-06-14T15:48:28;34.50;46.60
26623;DHT22;14254;50.968;5.366;2023-06-14T15:50:54;35.40;45.70
26623;DHT22;14254;50.968;5.366;2023-06-14T15:53:20;35.30;47.30
26623;DHT22;14254;50.968;5.366;2023-06-14T15:55:46;35.20;47.30
26623;DHT22;14254;50.968;5.366;2023-06-14T15:58:12;35.30;47.10
26623;DHT22;14254;50.968;5.366;2023-06-14T16:00:37;37.60;45.30
26623;DHT22;14254;50.968;5.366;2023-06-14T16:03:03;38.70;43.40
26623;DHT22;14254;50.968;5.366;2023-06-14T16:05:29;39.60;43.40
26623;DHT22;14254;50.968;5.366;2023-06-14T16:07:54;37.40;44.40
26623;DHT22;14254;50.968;5.366;2023-06-14T16:10:20;36.30;44.90
26623;DHT22;14254;50.968;5.366;2023-06-14T16:12:45;35.90;46.10
26623;DHT22;14254;50.968;5.366;2023-06-14T16:15:11;35.70;46.30
26623;DHT22;14254;50.968;5.366;2023-06-14T16:17:37;35.50;46.90
26623;DHT22;14254;50.968;5.366;2023-06-14T16:20:03;35.60;46.80
26623;DHT22;14254;50.968;5.366;2023-06-14T16:22:29;36.30;45.90
26623;DHT22;14254;50.968;5.366;2023-06-14T16:24:55;36.50;45.30
26623;DHT22;14254;50.968;5.366;2023-06-14T16:27:20;37.90;44.70
26623;DHT22;14254;50.968;5.366;2023-06-14T16:29:46;38.00;44.40
26623;DHT22;14254;50.968;5.366;2023-06-14T16:32:12;36.60;46.00
26623;DHT22;14254;50.968;5.366;2023-06-14T16:34:37;35.70;46.80
26623;DHT22;14254;50.968;5.366;2023-06-14T16:37:03;35.20;47.70
26623;DHT22;14254;50.968;5.366;2023-06-14T16:39:29;34.60;48.50
26623;DHT22;14254;50.968;5.366;2023-06-14T16:41:55;34.50;49.60
26623;DHT22;14254;50.968;5.366;2023-06-14T16:44:20;34.20;49.70
26623;DHT22;14254;50.968;5.366;2023-06-14T16:46:46;34.40;49.50
26623;DHT22;14254;50.968;5.366;2023-06-14T16:49:12;34.70;49.10
26623;DHT22;14254;50.968;5.366;2023-06-14T16:51:37;35.90;47.70
26623;DHT22;14254;50.968;5.366;2023-06-14T16:54:03;36.20;47.80
26623;DHT22;14254;50.968;5.366;2023-06-14T16:56:29;38.00;46.10
26623;DHT22;14254;50.968;5.366;2023-06-14T16:58:57;36.60;46.80
26623;DHT22;14254;50.968;5.366;2023-06-14T17:01:24;35.30;48.60